createdAt,value
2022-08-18T00:37:12.372Z,17.40
2022-08-18T00:39:40.680Z,17.30
2022-08-18T00:42:28.157Z,17.20
2022-08-18T00:45:06.876Z,17.20
2022-08-18T00:47:42.750Z,17.10
2022-08-18T00:50:33.600Z,17.00
2022-08-18T00:53:12.713Z,16.90
2022-08-18T00:55:43.804Z,16.90
2022-08-18T00:58:35.622Z,16.80
2022-08-18T01:01:08.794Z,16.70
2022-08-18T01:03:38.785Z,16.70
2022-08-18T01:06:28.937Z,16.60
2022-08-18T01:08:56.292Z,16.50
2022-08-18T01:11:23.514Z,16.50
2022-08-18T01:13:51.572Z,16.50
2022-08-18T01:16:19.762Z,16.50
2022-08-18T01:18:47.022Z,16.50
2022-08-18T01:21:29.078Z,16.30
2022-08-18T01:23:57.735Z,16.20
2022-08-18T01:26:28.589Z,16.20
2022-08-18T02:07:09.502Z,16.10
2022-08-18T08:09:06.913Z,17.10
2022-08-18T08:11:55.100Z,17.10
2022-08-18T08:14:41.584Z,17.10
2022-08-18T08:17:32.425Z,17.20
2022-08-18T08:20:26.115Z,17.40
2022-08-18T08:23:11.499Z,17.40
2022-08-18T08:26:15.414Z,17.40
2022-08-18T08:29:16.747Z,17.40
2022-08-18T08:32:05.137Z,17.40
2022-08-18T08:35:47.254Z,17.30
2022-08-18T08:38:36.542Z,17.30
2022-08-18T08:41:15.472Z,17.20
2022-08-18T08:44:00.606Z,17.10
2022-08-18T08:46:31.862Z,17.10
2022-08-18T08:49:19.227Z,16.90
2022-08-18T08:51:55.231Z,17.00
2022-08-18T08:54:35.434Z,16.90
2022-08-18T08:57:04.840Z,17.00
2022-08-18T08:59:32.130Z,16.90
2022-08-18T09:02:46.685Z,17.00
2022-08-18T09:05:17.438Z,16.80
2022-08-18T09:07:59.380Z,16.80
2022-08-18T09:11:03.283Z,16.80
2022-08-18T09:13:45.774Z,16.70
2022-08-18T09:17:12.148Z,16.50
2022-08-18T09:20:04.284Z,16.40
2022-08-18T09:23:18.707Z,16.20
2022-08-18T09:25:54.040Z,16.10
2022-08-18T09:28:30.230Z,16.00
2022-08-18T09:31:03.428Z,15.80
2022-08-18T09:33:39.279Z,15.70
2022-08-18T09:36:37.730Z,15.80
2022-08-18T09:39:37.874Z,15.70
2022-08-18T09:42:48.553Z,15.70
2022-08-18T09:45:33.767Z,15.80
2022-08-18T09:51:13.717Z,15.70
2022-08-18T09:53:47.045Z,15.70
2022-08-18T09:56:19.709Z,15.70
2022-08-18T09:58:59.427Z,15.70
2022-08-18T10:01:39.176Z,15.90
2022-08-18T10:04:29.355Z,15.80
2022-08-18T10:07:34.006Z,15.90
2022-08-18T10:11:01.004Z,15.80
2022-08-18T10:13:49.413Z,15.80
2022-08-18T10:16:31.936Z,15.90
2022-08-18T10:19:39.889Z,15.90
2022-08-18T10:22:10.773Z,16.00
2022-08-18T10:24:57.403Z,16.20
2022-08-18T10:27:49.184Z,16.50
2022-08-18T10:30:56.249Z,16.70
2022-08-18T10:34:15.952Z,17.00
2022-08-18T10:36:49.286Z,17.20
2022-08-18T10:39:23.518Z,17.50
2022-08-18T10:42:22.761Z,17.70
2022-08-18T10:45:00.896Z,17.90
2022-08-18T10:47:33.635Z,18.10
2022-08-18T10:50:18.721Z,18.20
2022-08-18T10:53:39.786Z,18.20
2022-08-18T10:56:52.372Z,18.00
2022-08-18T10:59:30.326Z,18.00
2022-08-18T11:02:38.869Z,18.00
2022-08-18T11:05:11.417Z,18.10
2022-08-18T11:07:39.964Z,18.30
2022-08-18T11:10:57.753Z,18.50
2022-08-18T11:13:26.858Z,18.90
2022-08-18T11:16:13.351Z,19.30
2022-08-18T11:18:53.032Z,19.70
2022-08-18T11:21:41.851Z,19.90
2022-08-18T11:27:15.242Z,20.20
2022-08-18T11:29:44.156Z,20.00
2022-08-18T11:32:22.883Z,19.70
2022-08-18T11:35:01.651Z,19.40
2022-08-18T11:37:56.067Z,19.10
2022-08-18T11:43:41.310Z,18.70
2022-08-18T11:46:31.763Z,18.40
2022-08-18T11:49:12.677Z,18.10
2022-08-18T11:52:02.204Z,18.00
2022-08-18T11:54:50.250Z,17.90
2022-08-18T12:40:37.377Z,16.80
2022-08-18T12:43:06.404Z,16.70
2022-08-18T12:45:38.056Z,16.70
2022-08-18T12:48:06.882Z,16.60
2022-08-18T12:50:49.886Z,16.50
2022-08-18T12:53:29.140Z,16.60
2022-08-18T12:56:19.945Z,16.40
2022-08-18T12:58:48.324Z,16.30
2022-08-18T13:04:13.107Z,16.20
2022-08-18T13:07:05.698Z,16.30
2022-08-18T13:09:52.484Z,16.40
2022-08-18T13:12:21.160Z,16.40
2022-08-18T13:14:49.685Z,16.30
2022-08-18T13:17:33.594Z,16.40
2022-08-18T13:20:13.427Z,16.50
2022-08-18T13:22:41.933Z,16.70
2022-08-18T13:25:32.071Z,16.80
2022-08-18T13:28:01.949Z,16.90
2022-08-18T13:30:32.129Z,17.30
2022-08-18T13:33:02.399Z,17.50
2022-08-18T13:35:37.898Z,17.80
2022-08-18T13:38:14.271Z,18.30
2022-08-18T13:40:46.955Z,18.60
2022-08-18T13:43:17.533Z,18.90
2022-08-18T13:45:45.688Z,19.20
2022-08-18T13:48:15.941Z,19.60
2022-08-18T13:50:45.789Z,19.70
2022-08-18T13:53:17.863Z,19.70
2022-08-18T13:55:46.508Z,20.00
2022-08-18T13:58:20.253Z,20.00
2022-08-18T14:00:52.780Z,20.20
2022-08-18T14:03:42.408Z,20.30
2022-08-18T14:06:09.998Z,20.50
2022-08-18T14:08:41.759Z,20.80
2022-08-18T14:11:09.852Z,20.90
2022-08-18T14:13:43.673Z,21.00
2022-08-18T14:16:16.113Z,20.90
2022-08-18T14:18:47.760Z,20.70
2022-08-18T14:21:15.152Z,20.70
2022-08-18T14:23:51.404Z,20.50
2022-08-18T14:26:20.478Z,20.30
2022-08-18T14:28:48.169Z,20.40
2022-08-18T14:31:20.731Z,20.20
2022-08-18T14:33:54.067Z,20.70
2022-08-18T14:36:29.947Z,21.00
2022-08-18T14:44:12.693Z,22.00
2022-08-18T14:46:43.060Z,22.20
2022-08-18T14:49:28.315Z,22.20
2022-08-18T14:52:01.761Z,22.10
2022-08-18T14:54:30.787Z,22.00
2022-08-18T14:57:00.080Z,21.90
2022-08-18T14:59:28.499Z,21.70
2022-08-18T15:01:55.875Z,21.80
2022-08-18T15:04:23.096Z,22.00
2022-08-18T15:06:58.582Z,22.20
2022-08-18T15:09:26.965Z,22.40
2022-08-18T15:11:57.732Z,22.50
2022-08-18T15:14:33.269Z,22.40
2022-08-18T15:17:11.577Z,22.60
2022-08-18T15:20:00.381Z,22.40
2022-08-18T15:22:26.561Z,22.10
2022-08-18T15:24:53.775Z,21.80
2022-08-18T15:27:42.822Z,21.60
2022-08-18T15:30:15.195Z,21.40
2022-08-18T15:32:49.929Z,21.60
2022-08-18T15:35:19.956Z,21.40
2022-08-18T15:37:51.081Z,21.80
2022-08-18T15:40:30.751Z,22.00
2022-08-18T15:43:09.904Z,22.10
2022-08-18T15:45:43.258Z,21.90
2022-08-18T15:48:26.992Z,21.80
2022-08-18T15:50:55.043Z,22.00
2022-08-18T15:53:29.935Z,22.40
2022-08-18T15:55:58.196Z,22.50
2022-08-18T15:58:31.307Z,22.70
2022-08-18T16:00:58.913Z,22.70
2022-08-18T16:03:26.487Z,22.50
2022-08-18T16:05:55.269Z,22.70
2022-08-18T16:08:25.403Z,22.60
2022-08-18T16:10:54.445Z,22.50
2022-08-18T16:13:24.193Z,22.50
2022-08-18T16:15:51.520Z,22.30
2022-08-18T16:18:21.100Z,22.20
2022-08-18T16:20:50.655Z,22.10
2022-08-18T16:23:20.164Z,21.90
2022-08-18T16:25:47.521Z,21.70
2022-08-18T16:28:14.707Z,21.50
2022-08-18T16:30:42.141Z,21.30
2022-08-18T16:35:37.550Z,20.60
2022-08-18T16:38:08.183Z,20.50
2022-08-18T16:40:36.679Z,20.40
2022-08-18T16:43:05.185Z,20.30
2022-08-18T16:45:32.773Z,20.30
2022-08-18T16:48:01.127Z,20.20
2022-08-18T16:50:29.684Z,20.00
2022-08-18T16:52:57.853Z,20.10
2022-08-18T16:55:25.306Z,19.90
2022-08-18T16:57:55.128Z,19.70
2022-08-18T17:00:25.269Z,19.60
2022-08-18T17:02:52.634Z,19.50
2022-08-18T17:05:19.964Z,19.50
2022-08-18T17:07:47.192Z,19.30
2022-08-18T17:10:14.519Z,19.20
2022-08-18T17:12:41.709Z,19.20
2022-08-18T17:15:09.361Z,19.10
2022-08-18T17:27:39.989Z,18.60
2022-08-18T17:30:22.477Z,18.30
2022-08-18T17:32:57.244Z,18.20
2022-08-18T17:35:39.938Z,18.00
2022-08-18T17:38:46.262Z,17.90
2022-08-18T17:41:17.267Z,17.70
2022-08-18T17:46:22.610Z,17.60
2022-08-18T17:49:08.148Z,17.50
2022-08-18T17:51:49.000Z,17.30
2022-08-18T17:54:45.534Z,17.20
2022-08-18T17:57:36.224Z,17.20
2022-08-18T18:00:16.125Z,16.90
2022-08-18T18:02:45.892Z,16.80
2022-08-18T18:05:21.311Z,16.80
2022-08-18T18:07:48.454Z,16.80
2022-08-18T18:13:34.380Z,16.60
2022-08-18T18:19:10.827Z,16.30
2022-08-18T18:22:00.136Z,16.40
2022-08-18T18:24:32.751Z,16.20
2022-08-18T18:27:00.680Z,16.10
2022-08-18T18:29:37.098Z,15.90
2022-08-18T18:32:26.788Z,16.00
2022-08-18T18:35:29.911Z,16.00
2022-08-18T18:38:05.586Z,16.00
2022-08-18T18:40:37.538Z,16.00
2022-08-18T18:43:24.529Z,15.90
2022-08-18T18:46:50.165Z,15.90
2022-08-18T18:49:20.177Z,15.80
2022-08-18T18:52:58.642Z,15.70
2022-08-18T18:55:33.976Z,15.60
2022-08-18T18:59:12.710Z,15.70
2022-08-18T19:02:32.908Z,15.50
2022-08-18T19:05:23.085Z,15.70
2022-08-18T19:08:14.551Z,15.50
2022-08-18T19:11:03.315Z,15.20
2022-08-18T19:13:43.419Z,15.40
2022-08-18T19:16:49.414Z,15.30
2022-08-18T19:19:49.368Z,15.20
2022-08-18T19:22:34.310Z,15.20
2022-08-18T19:25:19.559Z,15.10
2022-08-18T19:28:09.200Z,15.00
2022-08-18T19:30:43.898Z,15.00
2022-08-18T19:33:35.205Z,15.10
2022-08-18T19:36:31.856Z,15.00
2022-08-18T19:39:16.511Z,15.10
2022-08-18T19:42:01.515Z,15.00
2022-08-18T19:45:24.648Z,15.10
2022-08-18T19:48:03.693Z,15.10
2022-08-18T19:50:33.569Z,15.10
2022-08-18T19:53:24.897Z,15.00
2022-08-18T19:56:21.698Z,15.20
2022-08-18T19:59:15.608Z,15.10
2022-08-18T20:02:25.697Z,15.10
2022-08-18T20:05:26.720Z,15.20
2022-08-18T20:08:39.175Z,15.20
2022-08-18T20:11:41.268Z,15.20
2022-08-18T20:14:17.342Z,15.20
2022-08-18T20:17:13.662Z,15.20
2022-08-18T20:20:04.208Z,15.20
2022-08-18T20:22:42.590Z,15.20
2022-08-18T20:25:15.637Z,15.30
2022-08-18T20:27:49.722Z,15.40
2022-08-18T20:30:50.870Z,15.30
2022-08-18T20:33:23.878Z,15.30
2022-08-18T20:36:16.428Z,15.30
2022-08-18T20:38:49.122Z,15.40
2022-08-18T20:41:43.245Z,15.40
2022-08-18T20:44:50.503Z,15.30
2022-08-18T20:47:38.969Z,15.40
2022-08-18T20:50:30.768Z,15.50
2022-08-18T20:53:25.521Z,15.40
2022-08-18T20:56:43.105Z,15.60
2022-08-18T20:59:37.872Z,15.60
2022-08-18T21:02:29.745Z,15.60
2022-08-18T21:04:59.496Z,15.70
2022-08-18T21:07:38.517Z,15.70
2022-08-18T21:10:34.029Z,15.70
2022-08-18T21:13:05.241Z,15.70
2022-08-18T21:15:38.365Z,15.80
2022-08-18T21:18:27.369Z,15.80
2022-08-18T21:20:58.913Z,15.70
2022-08-18T21:23:36.218Z,15.80
2022-08-18T21:26:25.086Z,15.80
2022-08-18T21:29:12.537Z,15.80
2022-08-18T21:31:45.287Z,15.70
2022-08-18T21:34:29.278Z,15.70
2022-08-18T21:37:00.704Z,15.60
2022-08-18T21:39:28.156Z,15.50
2022-08-18T21:41:58.675Z,15.50
2022-08-18T21:44:37.686Z,15.50
2022-08-18T21:47:23.856Z,15.50
2022-08-18T21:50:16.316Z,15.40
2022-08-18T21:53:04.220Z,15.50
2022-08-18T21:55:38.574Z,15.40
2022-08-18T21:58:14.708Z,15.40
2022-08-18T22:01:04.116Z,15.30
2022-08-18T22:03:32.766Z,15.30
2022-08-18T22:06:19.519Z,15.30
2022-08-18T22:09:09.767Z,15.40
2022-08-18T22:11:59.421Z,15.30
2022-08-18T22:15:04.926Z,15.30
2022-08-18T22:17:42.032Z,15.20
2022-08-18T22:20:48.073Z,15.20
2022-08-18T22:23:15.244Z,15.00
2022-08-18T22:25:42.532Z,15.10
2022-08-18T22:28:09.824Z,14.90
2022-08-18T22:30:37.021Z,14.90
2022-08-18T22:33:04.302Z,14.80
2022-08-18T22:35:31.525Z,14.90
2022-08-18T22:37:58.752Z,14.80
2022-08-18T22:40:27.223Z,14.70
2022-08-18T22:42:54.441Z,14.70
2022-08-18T22:45:22.025Z,14.70
2022-08-18T22:47:49.181Z,14.70
2022-08-18T22:50:16.578Z,14.70
2022-08-18T22:52:49.029Z,14.70
2022-08-18T22:55:21.641Z,14.80
2022-08-18T22:57:56.146Z,14.70
2022-08-18T23:00:25.904Z,14.60
2022-08-18T23:02:54.771Z,14.60
2022-08-18T23:05:22.561Z,14.50
2022-08-18T23:07:49.880Z,14.50
2022-08-18T23:10:17.323Z,14.50
2022-08-18T23:12:46.859Z,14.40
2022-08-18T23:15:17.011Z,14.40
2022-08-18T23:17:44.412Z,14.40
2022-08-18T23:20:17.986Z,14.50
2022-08-18T23:22:46.552Z,14.50
2022-08-18T23:25:14.036Z,14.50
2022-08-18T23:27:41.331Z,14.60
2022-08-18T23:30:09.335Z,14.60
2022-08-18T23:32:36.561Z,14.60
2022-08-18T23:35:04.526Z,14.60
2022-08-18T23:37:31.928Z,14.50
2022-08-18T23:39:59.486Z,14.60
2022-08-18T23:42:26.920Z,14.70
2022-08-18T23:44:54.158Z,14.70
2022-08-18T23:47:21.375Z,14.60
2022-08-18T23:49:48.710Z,14.70
2022-08-18T23:52:15.892Z,14.60
2022-08-18T23:54:43.205Z,14.60
2022-08-18T23:57:10.387Z,14.80
2022-08-18T23:59:37.564Z,14.60
